Time;durP1;ratioP1;P1;durP2;ratioP2;P2;SDS_P1;SDS_P2;PMS_P1;PMS_P2;Temp;Humidity;BMP_temperature;BMP_pressure;BME280_temperature;BME280_humidity;BME280_pressure;Samples;Min_cycle;Max_cycle;Signal;HPM_P1;HPM_P2
2021/09/25 00:00:34;;;;;;;0.00;0.00;;;;;;;;;;5012498;28;20283;-84
2021/09/25 00:03:02;;;;;;;0.00;0.00;;;;;;;;;;4995035;28;20566;-82
2021/09/25 00:05:31;;;;;;;0.00;0.00;;;;;;;;;;5008774;28;20724;-83
2021/09/25 00:07:58;;;;;;;0.00;0.00;;;;;;;;;;5009850;28;20235;-81
2021/09/25 00:10:26;;;;;;;0.00;0.00;;;;;;;;;;5012082;28;20201;-83
2021/09/25 00:12:54;;;;;;;0.00;0.00;;;;;;;;;;5004510;28;20209;-81
2021/09/25 00:15:24;;;;;;;0.00;0.00;;;;;;;;;;4999242;28;20212;-82
2021/09/25 00:17:51;;;;;;;0.30;0.30;;;;;;;;;;4998805;28;20284;-83
2021/09/25 00:20:20;;;;;;;0.00;0.00;;;;;;;;;;5005060;28;20204;-83
2021/09/25 00:22:47;;;;;;;0.00;0.00;;;;;;;;;;5006180;28;20201;-83
2021/09/25 00:25:15;;;;;;;0.20;0.20;;;;;;;;;;5010507;28;20601;-81
2021/09/25 00:27:43;;;;;;;0.00;0.00;;;;;;;;;;5009008;28;20569;-83
2021/09/25 00:30:11;;;;;;;0.00;0.00;;;;;;;;;;4995478;28;20296;-84
2021/09/25 00:32:40;;;;;;;0.00;0.00;;;;;;;;;;5000064;28;20208;-81
2021/09/25 00:35:08;;;;;;;0.20;0.20;;;;;;;;;;5004097;28;20201;-82
2021/09/25 00:37:36;;;;;;;0.00;0.00;;;;;;;;;;5010035;28;20655;-83
2021/09/25 00:40:04;;;;;;;0.00;0.00;;;;;;;;;;5009277;28;20727;-82
2021/09/25 00:42:31;;;;;;;0.00;0.00;;;;;;;;;;5006197;28;20213;-84
2021/09/25 00:44:59;;;;;;;0.00;0.00;;;;;;;;;;5002723;28;20212;-83
2021/09/25 00:47:26;;;;;;;0.00;0.00;;;;;;;;;;5003769;28;20197;-83
2021/09/25 00:49:55;;;;;;;0.40;0.30;;;;;;;;;;5006543;28;20209;-83
2021/09/25 00:52:22;;;;;;;0.00;0.00;;;;;;;;;;5002224;28;20568;-84
2021/09/25 00:54:50;;;;;;;0.00;0.00;;;;;;;;;;5002868;28;20201;-83
2021/09/25 00:57:18;;;;;;;0.00;0.00;;;;;;;;;;5003446;28;20208;-81
2021/09/25 00:59:46;;;;;;;0.00;0.00;;;;;;;;;;5006786;28;20205;-82
2021/09/25 01:02:17;;;;;;;0.00;0.00;;;;;;;;;;5004728;28;20209;-83
2021/09/25 01:04:44;;;;;;;0.00;0.00;;;;;;;;;;5002005;28;20232;-84
2021/09/25 01:07:13;;;;;;;0.27;0.27;;;;;;;;;;5001988;28;20241;-84
2021/09/25 01:09:41;;;;;;;0.00;0.00;;;;;;;;;;5006468;28;20212;-83
2021/09/25 01:12:10;;;;;;;0.00;0.00;;;;;;;;;;5011497;28;20209;-84
2021/09/25 01:14:37;;;;;;;0.00;0.00;;;;;;;;;;5008636;28;20292;-85
2021/09/25 01:17:06;;;;;;;0.00;0.00;;;;;;;;;;5006989;28;20205;-82
2021/09/25 01:19:33;;;;;;;0.00;0.00;;;;;;;;;;5005606;28;20204;-83
2021/09/25 01:22:02;;;;;;;0.00;0.00;;;;;;;;;;5007599;28;20205;-83
2021/09/25 01:24:30;;;;;;;0.00;0.00;;;;;;;;;;5008138;28;20201;-83
2021/09/25 01:26:58;;;;;;;0.00;0.00;;;;;;;;;;5002382;28;20233;-83
2021/09/25 01:29:26;;;;;;;0.03;0.03;;;;;;;;;;5005843;28;20223;-83
2021/09/25 01:31:53;;;;;;;0.00;0.00;;;;;;;;;;5009817;28;20216;-81
2021/09/25 01:34:21;;;;;;;0.00;0.00;;;;;;;;;;5009076;28;20205;-82
2021/09/25 01:36:50;;;;;;;0.00;0.00;;;;;;;;;;5004235;28;21140;-83
2021/09/25 01:39:20;;;;;;;0.00;0.00;;;;;;;;;;4999986;28;20209;-80
2021/09/25 01:41:48;;;;;;;0.00;0.00;;;;;;;;;;5001854;28;20775;-84
2021/09/25 01:44:16;;;;;;;0.33;0.27;;;;;;;;;;5006396;28;20201;-84
2021/09/25 01:46:43;;;;;;;0.00;0.00;;;;;;;;;;5000612;28;20233;-83
2021/09/25 01:49:11;;;;;;;0.00;0.00;;;;;;;;;;5000681;28;20201;-82
2021/09/25 01:51:38;;;;;;;0.00;0.00;;;;;;;;;;5005867;28;20205;-81
2021/09/25 01:54:06;;;;;;;0.10;0.10;;;;;;;;;;5008896;28;20212;-81
2021/09/25 01:56:35;;;;;;;0.63;0.63;;;;;;;;;;5006879;28;20201;-83
2021/09/25 01:59:02;;;;;;;0.00;0.00;;;;;;;;;;5010333;28;20566;-84
2021/09/25 02:01:29;;;;;;;0.00;0.00;;;;;;;;;;5005309;28;20667;-83
2021/09/25 02:03:57;;;;;;;0.10;0.10;;;;;;;;;;4999265;28;20543;-83
2021/09/25 02:06:24;;;;;;;0.00;0.00;;;;;;;;;;4997720;28;20225;-82
2021/09/25 02:08:52;;;;;;;0.10;0.10;;;;;;;;;;5009674;28;20213;-81
2021/09/25 02:11:20;;;;;;;0.00;0.00;;;;;;;;;;5001815;28;20196;-80
2021/09/25 02:13:49;;;;;;;0.00;0.00;;;;;;;;;;5000997;28;20197;-82
2021/09/25 02:16:17;;;;;;;0.00;0.00;;;;;;;;;;4996825;28;20674;-82
2021/09/25 02:18:44;;;;;;;0.30;0.30;;;;;;;;;;5008194;28;20197;-83
2021/09/25 02:21:12;;;;;;;0.00;0.00;;;;;;;;;;5008060;28;20211;-84
2021/09/25 02:23:40;;;;;;;0.00;0.00;;;;;;;;;;5010458;28;20287;-84
2021/09/25 02:26:07;;;;;;;0.30;0.30;;;;;;;;;;5004916;28;20233;-84
2021/09/25 02:28:35;;;;;;;0.00;0.00;;;;;;;;;;5007810;28;20215;-84
2021/09/25 02:31:04;;;;;;;0.00;0.00;;;;;;;;;;4992648;28;20797;-82
2021/09/25 02:33:32;;;;;;;0.13;0.13;;;;;;;;;;5002041;28;20206;-84
2021/09/25 02:35:59;;;;;;;0.00;0.00;;;;;;;;;;5000585;28;20235;-85
2021/09/25 02:38:27;;;;;;;0.00;0.00;;;;;;;;;;5008358;28;20236;-83
2021/09/25 02:40:54;;;;;;;0.00;0.00;;;;;;;;;;5007134;28;20570;-83
2021/09/25 02:43:22;;;;;;;0.00;0.00;;;;;;;;;;5008157;28;20205;-83
2021/09/25 02:45:50;;;;;;;0.00;0.00;;;;;;;;;;5009629;28;20205;-83
2021/09/25 02:48:19;;;;;;;0.00;0.00;;;;;;;;;;5004845;28;20217;-84
2021/09/25 02:50:46;;;;;;;0.00;0.00;;;;;;;;;;5005207;28;20232;-83
2021/09/25 02:53:14;;;;;;;0.03;0.03;;;;;;;;;;5009628;28;20212;-84
2021/09/25 02:55:41;;;;;;;0.00;0.00;;;;;;;;;;5007430;28;20316;-84
2021/09/25 02:58:09;;;;;;;0.00;0.00;;;;;;;;;;5007603;28;20201;-82
2021/09/25 03:00:36;;;;;;;0.00;0.00;;;;;;;;;;5007234;28;20215;-84
2021/09/25 03:03:04;;;;;;;0.00;0.00;;;;;;;;;;4998800;28;20587;-82
2021/09/25 03:05:34;;;;;;;0.00;0.00;;;;;;;;;;4998991;28;20204;-83
2021/09/25 03:08:01;;;;;;;0.00;0.00;;;;;;;;;;5006307;28;20237;-84
2021/09/25 03:10:29;;;;;;;0.00;0.00;;;;;;;;;;5007460;28;20205;-80
2021/09/25 03:12:56;;;;;;;0.00;0.00;;;;;;;;;;4996296;28;20214;-83
2021/09/25 03:15:23;;;;;;;0.00;0.00;;;;;;;;;;5003764;28;20201;-83
2021/09/25 03:17:51;;;;;;;0.00;0.00;;;;;;;;;;5004083;28;20213;-81
2021/09/25 03:20:18;;;;;;;0.00;0.00;;;;;;;;;;5000896;28;20197;-83
2021/09/25 03:22:47;;;;;;;0.00;0.00;;;;;;;;;;5002438;28;20202;-83
2021/09/25 03:25:15;;;;;;;0.00;0.00;;;;;;;;;;5002606;28;20198;-81
2021/09/25 03:27:42;;;;;;;0.00;0.00;;;;;;;;;;5002245;28;20284;-84
2021/09/25 03:30:11;;;;;;;0.00;0.00;;;;;;;;;;5007858;28;20228;-84
2021/09/25 03:32:39;;;;;;;0.00;0.00;;;;;;;;;;5005268;28;20209;-82
2021/09/25 03:35:07;;;;;;;0.00;0.00;;;;;;;;;;4997908;28;20674;-84
2021/09/25 03:37:34;;;;;;;0.00;0.00;;;;;;;;;;5002071;28;20582;-85
2021/09/25 03:40:04;;;;;;;0.07;0.07;;;;;;;;;;4997797;28;20208;-82
2021/09/25 03:42:31;;;;;;;0.00;0.00;;;;;;;;;;5007704;28;20200;-83
2021/09/25 03:44:59;;;;;;;0.30;0.30;;;;;;;;;;5009234;28;20213;-84
2021/09/25 03:47:26;;;;;;;0.00;0.00;;;;;;;;;;5011444;28;20244;-83
2021/09/25 03:49:54;;;;;;;0.43;0.30;;;;;;;;;;5009462;28;20201;-81
2021/09/25 03:52:21;;;;;;;0.00;0.00;;;;;;;;;;4996699;28;20308;-81
2021/09/25 03:54:49;;;;;;;0.73;0.73;;;;;;;;;;5009611;28;20211;-82
2021/09/25 03:57:18;;;;;;;0.00;0.00;;;;;;;;;;5002640;28;20212;-83
2021/09/25 03:59:45;;;;;;;0.10;0.10;;;;;;;;;;5004729;28;20227;-82
2021/09/25 04:02:13;;;;;;;0.00;0.00;;;;;;;;;;5003629;28;20205;-80
2021/09/25 04:04:40;;;;;;;0.00;0.00;;;;;;;;;;5000755;28;20218;-83
2021/09/25 04:07:07;;;;;;;0.00;0.00;;;;;;;;;;5003351;28;20232;-79
2021/09/25 04:09:35;;;;;;;0.00;0.00;;;;;;;;;;5003761;28;20214;-82
2021/09/25 04:12:02;;;;;;;0.20;0.20;;;;;;;;;;5004361;28;20213;-84
2021/09/25 04:14:31;;;;;;;0.00;0.00;;;;;;;;;;5004275;28;20210;-83
2021/09/25 04:16:59;;;;;;;0.00;0.00;;;;;;;;;;4999244;28;20208;-83
2021/09/25 04:19:28;;;;;;;0.10;0.10;;;;;;;;;;5004550;28;20193;-79
2021/09/25 04:21:56;;;;;;;0.00;0.00;;;;;;;;;;5010071;28;20287;-83
2021/09/25 04:24:23;;;;;;;0.00;0.00;;;;;;;;;;5006482;28;20215;-78
2021/09/25 04:26:51;;;;;;;0.20;0.20;;;;;;;;;;5001643;28;20216;-80
2021/09/25 04:29:18;;;;;;;0.00;0.00;;;;;;;;;;5001334;28;20213;-81
2021/09/25 04:31:47;;;;;;;0.10;0.10;;;;;;;;;;5000471;28;20208;-81
2021/09/25 04:34:15;;;;;;;0.00;0.00;;;;;;;;;;5002464;28;20228;-83
2021/09/25 04:36:43;;;;;;;0.00;0.00;;;;;;;;;;5000108;28;20213;-81
2021/09/25 04:39:10;;;;;;;0.00;0.00;;;;;;;;;;5004409;28;20208;-82
2021/09/25 04:41:38;;;;;;;0.10;0.10;;;;;;;;;;5001603;28;20208;-81
2021/09/25 04:44:06;;;;;;;0.20;0.20;;;;;;;;;;5000906;28;20213;-81
2021/09/25 04:46:34;;;;;;;0.00;0.00;;;;;;;;;;5001442;28;20209;-84
2021/09/25 04:49:02;;;;;;;0.10;0.10;;;;;;;;;;5002771;28;20197;-83
2021/09/25 04:51:30;;;;;;;0.00;0.00;;;;;;;;;;5001890;28;20224;-83
2021/09/25 04:53:58;;;;;;;0.00;0.00;;;;;;;;;;5004540;28;20189;-83
2021/09/25 04:56:25;;;;;;;0.00;0.00;;;;;;;;;;5001144;28;20689;-83
2021/09/25 04:58:53;;;;;;;0.00;0.00;;;;;;;;;;5001898;28;20205;-80
2021/09/25 05:01:20;;;;;;;0.00;0.00;;;;;;;;;;5001773;28;20215;-85
2021/09/25 05:03:48;;;;;;;0.00;0.00;;;;;;;;;;5001757;28;20674;-81
2021/09/25 05:06:17;;;;;;;0.10;0.10;;;;;;;;;;5002264;28;20212;-80
2021/09/25 05:08:45;;;;;;;0.00;0.00;;;;;;;;;;5002178;28;20702;-82
2021/09/25 05:11:12;;;;;;;0.00;0.00;;;;;;;;;;5002161;28;20205;-83
2021/09/25 05:13:40;;;;;;;0.00;0.00;;;;;;;;;;5002772;28;20207;-84
2021/09/25 05:16:07;;;;;;;1.70;0.67;;;;;;;;;;4999194;28;20212;-85
2021/09/25 05:18:34;;;;;;;0.00;0.00;;;;;;;;;;5003124;28;20213;-84
2021/09/25 05:21:02;;;;;;;0.00;0.00;;;;;;;;;;5002861;28;21853;-83
2021/09/25 05:23:31;;;;;;;0.83;0.67;;;;;;;;;;5001784;28;20201;-81
2021/09/25 05:25:58;;;;;;;0.43;0.43;;;;;;;;;;5000508;28;20678;-83
2021/09/25 05:28:26;;;;;;;0.00;0.00;;;;;;;;;;5000817;28;21551;-84
2021/09/25 05:30:53;;;;;;;0.87;0.87;;;;;;;;;;4997790;28;20201;-78
2021/09/25 05:33:21;;;;;;;0.00;0.00;;;;;;;;;;5002947;28;20854;-82
2021/09/25 05:35:48;;;;;;;0.83;0.37;;;;;;;;;;4999295;28;20209;-82
2021/09/25 05:38:16;;;;;;;0.67;0.67;;;;;;;;;;5000790;28;20205;-84
2021/09/25 05:40:45;;;;;;;0.00;0.00;;;;;;;;;;5001173;28;20212;-79
2021/09/25 05:43:12;;;;;;;0.00;0.00;;;;;;;;;;5003111;28;20205;-83
2021/09/25 05:45:39;;;;;;;0.00;0.00;;;;;;;;;;5001830;28;20678;-81
2021/09/25 05:48:07;;;;;;;0.00;0.00;;;;;;;;;;4999383;28;20597;-83
2021/09/25 05:50:35;;;;;;;0.00;0.00;;;;;;;;;;5000664;28;20236;-80
2021/09/25 05:53:02;;;;;;;0.00;0.00;;;;;;;;;;5002935;28;20227;-83
2021/09/25 05:55:29;;;;;;;0.70;0.50;;;;;;;;;;4998468;28;20213;-84
2021/09/25 05:58:01;;;;;;;0.43;0.43;;;;;;;;;;4999366;28;20204;-78
2021/09/25 06:00:29;;;;;;;1.03;0.43;;;;;;;;;;4998706;28;20205;-81
2021/09/25 06:02:57;;;;;;;0.00;0.00;;;;;;;;;;5001485;28;20213;-83
2021/09/25 06:05:25;;;;;;;0.00;0.00;;;;;;;;;;5000272;28;20328;-81
2021/09/25 06:07:53;;;;;;;0.00;0.00;;;;;;;;;;5000744;28;20244;-81
2021/09/25 06:10:20;;;;;;;0.00;0.00;;;;;;;;;;4997836;28;20212;-79
2021/09/25 06:12:47;;;;;;;1.30;0.90;;;;;;;;;;5004154;28;20216;-81
2021/09/25 06:15:16;;;;;;;0.00;0.00;;;;;;;;;;5000150;28;20565;-82
2021/09/25 06:17:44;;;;;;;0.00;0.00;;;;;;;;;;4998667;28;20209;-80
2021/09/25 06:20:13;;;;;;;0.37;0.37;;;;;;;;;;5002439;28;20662;-80
2021/09/25 06:22:40;;;;;;;0.37;0.37;;;;;;;;;;5001763;28;20561;-82
2021/09/25 06:25:09;;;;;;;0.27;0.27;;;;;;;;;;5001208;28;20212;-84
2021/09/25 06:27:37;;;;;;;1.17;1.17;;;;;;;;;;4999173;28;20213;-83
2021/09/25 06:30:06;;;;;;;0.00;0.00;;;;;;;;;;4998512;28;20295;-82
2021/09/25 06:32:35;;;;;;;1.70;0.73;;;;;;;;;;5001210;28;20625;-84
2021/09/25 06:35:02;;;;;;;0.40;0.40;;;;;;;;;;5000488;28;20208;-81
2021/09/25 06:37:30;;;;;;;0.00;0.00;;;;;;;;;;5000582;28;20204;-82
2021/09/25 06:39:57;;;;;;;0.20;0.10;;;;;;;;;;5007023;28;20216;-83
2021/09/25 06:42:25;;;;;;;0.50;0.50;;;;;;;;;;5001441;28;20203;-84
2021/09/25 06:44:52;;;;;;;0.00;0.00;;;;;;;;;;4998400;28;20283;-84
2021/09/25 06:47:20;;;;;;;0.00;0.00;;;;;;;;;;5001504;28;20235;-81
2021/09/25 06:49:49;;;;;;;0.00;0.00;;;;;;;;;;4999711;28;20213;-84
2021/09/25 06:52:17;;;;;;;0.53;0.37;;;;;;;;;;5007940;28;20192;-84
2021/09/25 06:54:44;;;;;;;0.00;0.00;;;;;;;;;;5009960;28;20201;-84
2021/09/25 06:57:12;;;;;;;0.00;0.00;;;;;;;;;;5005264;28;20673;-85
2021/09/25 06:59:39;;;;;;;0.00;0.00;;;;;;;;;;5007806;28;20205;-83
2021/09/25 07:02:06;;;;;;;0.00;0.00;;;;;;;;;;4996521;28;20201;-77
2021/09/25 07:04:34;;;;;;;0.10;0.10;;;;;;;;;;5002309;28;20212;-74
2021/09/25 07:07:03;;;;;;;0.23;0.23;;;;;;;;;;5000441;28;20249;-76
2021/09/25 07:09:30;;;;;;;0.10;0.10;;;;;;;;;;5003595;28;20197;-76
2021/09/25 07:11:57;;;;;;;0.03;0.03;;;;;;;;;;5000232;28;20197;-77
2021/09/25 07:14:25;;;;;;;0.00;0.00;;;;;;;;;;5005227;28;20205;-74
2021/09/25 07:16:52;;;;;;;0.20;0.20;;;;;;;;;;5000730;28;20205;-75
2021/09/25 07:19:20;;;;;;;0.70;0.70;;;;;;;;;;5008739;28;20655;-74
2021/09/25 07:21:47;;;;;;;0.10;0.10;;;;;;;;;;5011472;28;20197;-74
2021/09/25 07:24:16;;;;;;;0.43;0.40;;;;;;;;;;5004065;28;20241;-75
2021/09/25 07:26:43;;;;;;;0.00;0.00;;;;;;;;;;5006147;28;20674;-74
2021/09/25 07:29:11;;;;;;;0.10;0.10;;;;;;;;;;5012248;28;20271;-74
2021/09/25 07:31:38;;;;;;;0.00;0.00;;;;;;;;;;5008269;28;20875;-76
2021/09/25 07:34:06;;;;;;;1.30;1.10;;;;;;;;;;5001876;28;20209;-75
2021/09/25 07:36:33;;;;;;;1.53;0.70;;;;;;;;;;5001946;28;20213;-76
2021/09/25 07:39:00;;;;;;;0.20;0.20;;;;;;;;;;5000907;28;20197;-75
2021/09/25 07:41:29;;;;;;;0.00;0.00;;;;;;;;;;5003052;28;20207;-76
2021/09/25 07:43:57;;;;;;;0.33;0.33;;;;;;;;;;5001195;28;20231;-76
2021/09/25 07:46:25;;;;;;;0.03;0.03;;;;;;;;;;5003515;28;20212;-78
2021/09/25 07:48:52;;;;;;;0.23;0.23;;;;;;;;;;5003236;28;20306;-77
2021/09/25 07:51:20;;;;;;;0.00;0.00;;;;;;;;;;5001662;28;20201;-77
2021/09/25 07:53:47;;;;;;;1.43;1.33;;;;;;;;;;5000346;28;20212;-77
2021/09/25 07:56:14;;;;;;;0.00;0.00;;;;;;;;;;5006770;28;20224;-77
2021/09/25 07:58:43;;;;;;;0.13;0.13;;;;;;;;;;5002359;28;20205;-77
2021/09/25 08:01:11;;;;;;;1.33;1.23;;;;;;;;;;5003689;28;20695;-78
2021/09/25 08:03:38;;;;;;;0.60;0.60;;;;;;;;;;5003237;28;20208;-78
2021/09/25 08:06:07;;;;;;;0.00;0.00;;;;;;;;;;5002958;28;20610;-75
2021/09/25 08:08:34;;;;;;;0.00;0.00;;;;;;;;;;5010120;28;20240;-75
2021/09/25 08:11:02;;;;;;;0.10;0.10;;;;;;;;;;5005069;28;20683;-75
2021/09/25 08:13:29;;;;;;;0.00;0.00;;;;;;;;;;5004092;28;20673;-78
2021/09/25 08:15:58;;;;;;;0.00;0.00;;;;;;;;;;5002304;28;20211;-77
2021/09/25 08:18:26;;;;;;;1.00;0.77;;;;;;;;;;5007649;28;20201;-78
2021/09/25 08:20:53;;;;;;;0.60;0.60;;;;;;;;;;5006543;28;20809;-77
2021/09/25 08:23:21;;;;;;;0.00;0.00;;;;;;;;;;5010479;28;20650;-76
2021/09/25 08:25:48;;;;;;;0.00;0.00;;;;;;;;;;5002132;28;20216;-77
2021/09/25 08:28:16;;;;;;;0.43;0.43;;;;;;;;;;5007916;28;20249;-81
2021/09/25 08:30:43;;;;;;;0.40;0.40;;;;;;;;;;5007916;28;20209;-80
2021/09/25 08:33:12;;;;;;;0.00;0.00;;;;;;;;;;5010032;28;20205;-74
2021/09/25 08:35:40;;;;;;;0.30;0.30;;;;;;;;;;5003607;28;20219;-74
2021/09/25 08:38:07;;;;;;;0.00;0.00;;;;;;;;;;5002895;28;20204;-75
2021/09/25 08:40:34;;;;;;;0.00;0.00;;;;;;;;;;5003113;28;20211;-77
2021/09/25 08:43:03;;;;;;;0.00;0.00;;;;;;;;;;5003482;28;20205;-74
2021/09/25 08:45:30;;;;;;;0.00;0.00;;;;;;;;;;5003131;28;20206;-76
2021/09/25 08:47:58;;;;;;;0.03;0.03;;;;;;;;;;5010027;28;20235;-80
2021/09/25 08:50:28;;;;;;;0.00;0.00;;;;;;;;;;5011134;28;20625;-75
2021/09/25 08:52:55;;;;;;;1.40;0.77;;;;;;;;;;5010174;28;20551;-75
2021/09/25 08:55:23;;;;;;;0.00;0.00;;;;;;;;;;5007937;28;20212;-75
2021/09/25 08:57:50;;;;;;;0.00;0.00;;;;;;;;;;5005782;28;20240;-75
2021/09/25 09:00:36;;;;;;;0.07;0.07;;;;;;;;;;5012053;28;20210;-75
2021/09/25 09:03:34;;;;;;;0.00;0.00;;;;;;;;;;5008699;28;20216;-74
2021/09/25 09:06:08;;;;;;;0.00;0.00;;;;;;;;;;5008016;28;20201;-75
2021/09/25 09:08:35;;;;;;;0.20;0.20;;;;;;;;;;5009586;28;20256;-88
2021/09/25 09:11:04;;;;;;;0.00;0.00;;;;;;;;;;5006749;28;20201;-89
2021/09/25 09:13:31;;;;;;;0.00;0.00;;;;;;;;;;5004263;28;20205;-88
2021/09/25 09:16:02;;;;;;;0.20;0.20;;;;;;;;;;4999904;28;20781;-85
2021/09/25 09:18:31;;;;;;;0.00;0.00;;;;;;;;;;5001335;28;20209;-86
2021/09/25 09:21:07;;;;;;;0.00;0.00;;;;;;;;;;5003865;28;20212;-84
2021/09/25 09:23:37;;;;;;;0.30;0.30;;;;;;;;;;5000137;28;20208;-87
2021/09/25 09:26:05;;;;;;;0.00;0.00;;;;;;;;;;5000841;28;20215;-86
2021/09/25 09:28:34;;;;;;;0.43;0.43;;;;;;;;;;5002723;28;20231;-88
2021/09/25 09:31:03;;;;;;;0.10;0.10;;;;;;;;;;5001825;28;20205;-79
2021/09/25 09:33:32;;;;;;;2.00;0.57;;;;;;;;;;5002928;28;20659;-87
2021/09/25 09:36:15;;;;;;;0.00;0.00;;;;;;;;;;5004061;28;20241;-89
2021/09/25 09:38:47;;;;;;;0.00;0.00;;;;;;;;;;5001208;28;20204;-90
2021/09/25 09:41:14;;;;;;;0.10;0.10;;;;;;;;;;5003202;28;20682;-85
2021/09/25 09:43:42;;;;;;;0.63;0.63;;;;;;;;;;5003398;28;20216;-90
2021/09/25 09:46:09;;;;;;;0.20;0.20;;;;;;;;;;5001349;28;22486;-85
2021/09/25 09:48:36;;;;;;;0.00;0.00;;;;;;;;;;5002502;28;20229;-82
2021/09/25 09:51:04;;;;;;;0.00;0.00;;;;;;;;;;5005438;28;20591;-89
2021/09/25 09:53:42;;;;;;;0.00;0.00;;;;;;;;;;4999004;28;20571;-90
2021/09/25 09:56:24;;;;;;;0.30;0.30;;;;;;;;;;5001728;28;20890;-90
2021/09/25 09:58:58;;;;;;;0.20;0.20;;;;;;;;;;5001352;28;20681;-83
2021/09/25 10:04:08;;;;;;;0.00;0.00;;;;;;;;;;5015981;28;20290;-79
2021/09/25 10:06:36;;;;;;;0.70;0.68;;;;;;;;;;5005285;28;20213;-80
2021/09/25 10:09:07;;;;;;;0.52;0.20;;;;;;;;;;5005747;28;20233;-80
2021/09/25 10:11:35;;;;;;;0.00;0.00;;;;;;;;;;5001163;28;20263;-80
2021/09/25 10:14:17;;;;;;;0.08;0.08;;;;;;;;;;5008318;28;20201;-81
2021/09/25 10:16:45;;;;;;;0.00;0.00;;;;;;;;;;5016465;28;20201;-78
2021/09/25 10:19:13;;;;;;;0.00;0.00;;;;;;;;;;5013800;28;20197;-81
2021/09/25 10:21:41;;;;;;;0.00;0.00;;;;;;;;;;5008468;28;20681;-78
2021/09/25 10:24:11;;;;;;;0.00;0.00;;;;;;;;;;5008883;28;20205;-78
2021/09/25 10:26:43;;;;;;;0.77;0.63;;;;;;;;;;5002838;28;20571;-78
2021/09/25 10:29:12;;;;;;;2.35;1.17;;;;;;;;;;5000338;28;20232;-78
2021/09/25 10:31:39;;;;;;;0.00;0.00;;;;;;;;;;4999598;28;20209;-77
2021/09/25 10:34:14;;;;;;;0.00;0.00;;;;;;;;;;5002584;28;20820;-78
2021/09/25 10:36:48;;;;;;;0.20;0.20;;;;;;;;;;5001536;28;20207;-80
2021/09/25 10:39:36;;;;;;;0.47;0.47;;;;;;;;;;5007086;28;20292;-80
2021/09/25 10:42:12;;;;;;;0.00;0.00;;;;;;;;;;5006583;28;20637;-80
2021/09/25 10:44:44;;;;;;;0.00;0.00;;;;;;;;;;5001148;28;20676;-81
2021/09/25 10:47:13;;;;;;;0.00;0.00;;;;;;;;;;5001638;28;20213;-81
2021/09/25 10:49:44;;;;;;;0.10;0.10;;;;;;;;;;5000906;28;20684;-78
2021/09/25 10:52:12;;;;;;;0.00;0.00;;;;;;;;;;5003506;28;21497;-79
2021/09/25 10:54:40;;;;;;;0.00;0.00;;;;;;;;;;5005813;28;20196;-77
2021/09/25 10:57:16;;;;;;;0.00;0.00;;;;;;;;;;5005118;28;20212;-79
2021/09/25 11:00:04;;;;;;;0.00;0.00;;;;;;;;;;5006502;28;20200;-79
2021/09/25 11:02:41;;;;;;;0.03;0.03;;;;;;;;;;4994062;28;20208;-85
2021/09/25 11:05:09;;;;;;;0.00;0.00;;;;;;;;;;5008272;28;20211;-84
2021/09/25 11:07:37;;;;;;;0.08;0.08;;;;;;;;;;5001161;28;20236;-87
2021/09/25 11:10:05;;;;;;;0.00;0.00;;;;;;;;;;5006355;28;20270;-83
2021/09/25 11:12:48;;;;;;;0.25;0.25;;;;;;;;;;5008275;28;20544;-82
2021/09/25 11:15:31;;;;;;;0.00;0.00;;;;;;;;;;4998681;28;20204;-84
2021/09/25 11:18:13;;;;;;;0.00;0.00;;;;;;;;;;4999189;28;20213;-86
2021/09/25 11:20:41;;;;;;;0.00;0.00;;;;;;;;;;5006303;28;20561;-85
2021/09/25 11:23:08;;;;;;;0.30;0.30;;;;;;;;;;5010963;28;22556;-86
2021/09/25 11:25:35;;;;;;;0.00;0.00;;;;;;;;;;5010393;28;20577;-86
2021/09/25 11:28:06;;;;;;;0.65;0.65;;;;;;;;;;5003783;28;20295;-84
2021/09/25 11:30:33;;;;;;;0.00;0.00;;;;;;;;;;5013019;28;20228;-87
2021/09/25 11:33:02;;;;;;;0.00;0.00;;;;;;;;;;5010833;28;20209;-86
2021/09/25 11:35:31;;;;;;;0.35;0.35;;;;;;;;;;5010374;28;20197;-86
2021/09/25 11:38:00;;;;;;;0.10;0.10;;;;;;;;;;5004194;28;20217;-85
2021/09/25 11:40:28;;;;;;;0.00;0.00;;;;;;;;;;5010413;28;20197;-85
2021/09/25 11:43:08;;;;;;;0.00;0.00;;;;;;;;;;5010970;28;20230;-82
2021/09/25 11:45:37;;;;;;;0.13;0.13;;;;;;;;;;5010277;28;20205;-83
2021/09/25 11:48:06;;;;;;;0.00;0.00;;;;;;;;;;5010810;28;20201;-86
2021/09/25 11:50:35;;;;;;;0.00;0.00;;;;;;;;;;5013126;28;20255;-85
2021/09/25 11:53:03;;;;;;;0.00;0.00;;;;;;;;;;5010811;28;20234;-89
2021/09/25 11:55:32;;;;;;;0.00;0.00;;;;;;;;;;5010045;28;20212;-84
2021/09/25 11:58:00;;;;;;;0.20;0.20;;;;;;;;;;5002306;28;20509;-75
2021/09/25 12:00:32;;;;;;;0.00;0.00;;;;;;;;;;5000568;28;20200;-81
2021/09/25 12:03:02;;;;;;;0.00;0.00;;;;;;;;;;4996014;28;20696;-85
2021/09/25 12:05:31;;;;;;;0.08;0.08;;;;;;;;;;4997761;28;20247;-80
2021/09/25 12:08:01;;;;;;;0.00;0.00;;;;;;;;;;4997725;28;21028;-84
2021/09/25 12:10:30;;;;;;;0.00;0.00;;;;;;;;;;5000460;28;20255;-74
2021/09/25 12:12:58;;;;;;;0.00;0.00;;;;;;;;;;5003789;28;20212;-81
2021/09/25 12:15:27;;;;;;;0.10;0.10;;;;;;;;;;5001416;28;20707;-79
2021/09/25 12:18:22;;;;;;;0.20;0.20;;;;;;;;;;5000990;28;20205;-75
2021/09/25 12:20:52;;;;;;;0.30;0.30;;;;;;;;;;5000306;28;21430;-83
2021/09/25 12:23:20;;;;;;;0.00;0.00;;;;;;;;;;5000470;28;20209;-80
2021/09/25 12:25:48;;;;;;;0.00;0.00;;;;;;;;;;4997533;28;20701;-79
2021/09/25 12:28:29;;;;;;;0.10;0.10;;;;;;;;;;4999927;28;20724;-80
2021/09/25 12:30:57;;;;;;;0.00;0.00;;;;;;;;;;4998807;28;20220;-81
2021/09/25 12:33:25;;;;;;;0.75;0.70;;;;;;;;;;5000503;28;20224;-81
2021/09/25 12:36:02;;;;;;;0.00;0.00;;;;;;;;;;5001144;28;20208;-79
2021/09/25 12:38:31;;;;;;;0.00;0.00;;;;;;;;;;5002373;28;20223;-77
2021/09/25 12:41:02;;;;;;;0.00;0.00;;;;;;;;;;4997387;28;20229;-77
2021/09/25 12:43:33;;;;;;;0.00;0.00;;;;;;;;;;4997615;28;20256;-79
2021/09/25 12:46:11;;;;;;;0.00;0.00;;;;;;;;;;4996562;28;20200;-79
2021/09/25 12:48:54;;;;;;;0.00;0.00;;;;;;;;;;5000338;28;20213;-80
2021/09/25 12:51:27;;;;;;;0.00;0.00;;;;;;;;;;4996177;28;20213;-77
2021/09/25 12:53:55;;;;;;;0.00;0.00;;;;;;;;;;5002987;28;20662;-80
2021/09/25 12:56:23;;;;;;;0.00;0.00;;;;;;;;;;5003389;28;20292;-78
2021/09/25 12:58:51;;;;;;;0.00;0.00;;;;;;;;;;5003908;28;20197;-81
2021/09/25 13:01:28;;;;;;;0.00;0.00;;;;;;;;;;5003177;28;20206;-77
2021/09/25 13:03:56;;;;;;;0.00;0.00;;;;;;;;;;5006044;28;20693;-79
2021/09/25 13:06:25;;;;;;;0.00;0.00;;;;;;;;;;4999677;28;20208;-80
2021/09/25 13:09:01;;;;;;;0.08;0.08;;;;;;;;;;5002814;28;20204;-78
2021/09/25 13:11:28;;;;;;;0.00;0.00;;;;;;;;;;5002499;28;20209;-77
2021/09/25 13:14:06;;;;;;;0.03;0.03;;;;;;;;;;4997770;28;20205;-76
2021/09/25 13:16:33;;;;;;;0.00;0.00;;;;;;;;;;5000359;28;20197;-75
2021/09/25 13:19:01;;;;;;;0.17;0.17;;;;;;;;;;4998699;28;20232;-76
2021/09/25 13:21:28;;;;;;;0.00;0.00;;;;;;;;;;5001202;28;20208;-75
2021/09/25 13:24:01;;;;;;;0.00;0.00;;;;;;;;;;5002667;28;20204;-79
2021/09/25 13:26:29;;;;;;;0.00;0.00;;;;;;;;;;5003781;28;20209;-80
2021/09/25 13:28:56;;;;;;;0.00;0.00;;;;;;;;;;5005115;28;20216;-77
2021/09/25 13:31:24;;;;;;;0.00;0.00;;;;;;;;;;4998864;28;20233;-77
2021/09/25 13:33:51;;;;;;;0.00;0.00;;;;;;;;;;5001448;28;20570;-81
2021/09/25 13:36:19;;;;;;;0.00;0.00;;;;;;;;;;4998450;28;20209;-76
2021/09/25 13:38:46;;;;;;;0.00;0.00;;;;;;;;;;4999155;28;20204;-85
2021/09/25 13:41:15;;;;;;;0.00;0.00;;;;;;;;;;4998309;28;20209;-76
2021/09/25 13:43:43;;;;;;;0.00;0.00;;;;;;;;;;5001160;28;20267;-80
2021/09/25 13:46:10;;;;;;;0.50;0.50;;;;;;;;;;5000401;28;20201;-80
2021/09/25 13:48:38;;;;;;;0.00;0.00;;;;;;;;;;5001840;28;20208;-79
2021/09/25 13:51:05;;;;;;;0.00;0.00;;;;;;;;;;5000528;28;20220;-80
2021/09/25 13:53:32;;;;;;;0.00;0.00;;;;;;;;;;4998390;28;20207;-82
2021/09/25 13:56:00;;;;;;;0.00;0.00;;;;;;;;;;4999903;28;20681;-79
2021/09/25 13:58:29;;;;;;;0.10;0.10;;;;;;;;;;4999900;28;20194;-81
2021/09/25 14:00:57;;;;;;;0.00;0.00;;;;;;;;;;4998552;28;20567;-78
2021/09/25 14:03:25;;;;;;;0.00;0.00;;;;;;;;;;5000630;28;20295;-79
2021/09/25 14:05:54;;;;;;;0.00;0.00;;;;;;;;;;5000796;28;20208;-79
2021/09/25 14:08:21;;;;;;;0.00;0.00;;;;;;;;;;4999344;28;20288;-79
2021/09/25 14:10:49;;;;;;;0.00;0.00;;;;;;;;;;4999051;28;20590;-79
2021/09/25 14:13:16;;;;;;;0.00;0.00;;;;;;;;;;4999794;28;20213;-79
2021/09/25 14:15:45;;;;;;;0.00;0.00;;;;;;;;;;5003520;28;20205;-78
2021/09/25 14:18:13;;;;;;;0.00;0.00;;;;;;;;;;5000869;28;20204;-79
2021/09/25 14:20:42;;;;;;;0.38;0.38;;;;;;;;;;5001500;28;21592;-77
2021/09/25 14:23:11;;;;;;;0.00;0.00;;;;;;;;;;5000176;28;20208;-75
2021/09/25 14:25:40;;;;;;;0.00;0.00;;;;;;;;;;4997438;28;20208;-80
2021/09/25 14:28:16;;;;;;;0.00;0.00;;;;;;;;;;5023223;28;20670;-76
2021/09/25 14:30:44;;;;;;;0.00;0.00;;;;;;;;;;5019328;28;20610;-81
2021/09/25 14:33:12;;;;;;;0.00;0.00;;;;;;;;;;5005842;28;20208;-82
2021/09/25 14:35:40;;;;;;;0.00;0.00;;;;;;;;;;5008654;28;20281;-83
2021/09/25 14:38:07;;;;;;;0.05;0.05;;;;;;;;;;5009241;28;20208;-82
2021/09/25 14:40:35;;;;;;;0.00;0.00;;;;;;;;;;5009198;28;20705;-80
2021/09/25 14:43:02;;;;;;;0.00;0.00;;;;;;;;;;5009286;28;20197;-80
2021/09/25 14:45:30;;;;;;;0.00;0.00;;;;;;;;;;5008878;28;20216;-75
2021/09/25 14:47:57;;;;;;;0.00;0.00;;;;;;;;;;5005055;28;20372;-78
2021/09/25 14:50:28;;;;;;;0.77;0.77;;;;;;;;;;4996628;28;20229;-76
2021/09/25 14:52:55;;;;;;;1.70;1.30;;;;;;;;;;5000596;28;20251;-76
2021/09/25 14:55:23;;;;;;;0.00;0.00;;;;;;;;;;5001376;28;20197;-75